Have a Safe July 4th! 

Flight Track Log - Related Links

Times and Time Zones

All times are in EDT time to prevent confusion due to time zone crossing. See the CSJ405 flight status page for this flight to view local times or setup timezone preferences in your user account.

Time Position Orientation Groundspeed Altitude Reporting Facility
EDT Latitude Longitude Course Direction KTS MPH feet Rate Location/Type
Tue 05:27:43 PM 42.7381 -73.8083 206° Southwest 96 110 1,100  Level Boston Center
Tue 05:28:26 PM 42.7192 -73.8164 197° South 106 122 1,700 874 Climbing Boston Center
Tue 05:29:26 PM 42.6919 -73.8383 211° Southwest 128 147 2,600 942 Climbing Boston Center
Tue 05:30:27 PM 42.6583 -73.8544 199° South 124 143 3,600 885 Climbing Boston Center
Tue 05:31:28 PM 42.6308 -73.8822 217° Southwest 130 150 4,400 793 Climbing Boston Center
Tue 05:32:28 PM 42.5992 -73.9153 218° Southwest 135 155 5,200 793 Climbing Boston Center
Tue 05:33:00 PM 42.5125 -73.8641 206° Southwest  Level Estimated
Tue 05:33:29 PM 42.5656 -73.9369 205° Southwest 140 161 6,000  Level Boston Center
Tue 05:34:30 PM 42.5297 -73.9642 209° Southwest 141 162 6,800 793 Climbing Boston Center
Tue 05:35:30 PM 42.4942 -73.9889 207° Southwest 138 159 7,600 595 Climbing Boston Center
Tue 05:36:31 PM 42.4603 -74.0189 213° Southwest 147 169 8,000 261 Climbing Boston Center
Tue 05:37:02 PM 42.4350 -74.0350 205° Southwest 165 190 8,000  Level Boston Center
Tue 05:37:32 PM 42.4203 -74.0461 209° Southwest 170 196 8,000  Level Boston Center
Tue 05:38:14 PM 42.4014 -74.0567 202° Southwest 170 196 8,000  Level Boston Center
Tue 05:39:14 PM 42.3528 -74.0947 210° Southwest 175 201 8,000  Level Boston Center
Tue 05:40:14 PM 42.3067 -74.1272 208° Southwest 180 207 8,000  Level Boston Center
Tue 05:41:14 PM 42.2644 -74.1597 210° Southwest 175 201 8,000  Level Boston Center
Tue 05:42:14 PM 42.2222 -74.1950 212° Southwest 181 208 8,000 50 Level Boston Center
Tue 05:43:14 PM 42.1800 -74.2275 210° Southwest 181 208 8,100  Climbing Boston Center
Tue 05:44:14 PM 42.1378 -74.2600 210° Southwest 181 208 8,000 -50 Descending Boston Center
Tue 05:45:14 PM 42.0936 -74.2894 206° Southwest 181 208 8,000  Level Boston Center
Tue 05:46:14 PM 42.0494 -74.3078 197° South 181 208 8,000 -100 Level Boston Center
Tue 05:47:14 PM 41.9992 -74.3286 197° South 176 203 7,800 -273 Descending Boston Center
Tue 05:48:26 PM 41.9531 -74.3467 196° South 181 208 7,400 -364 Descending Boston Center
Tue 05:49:26 PM 41.8961 -74.3758 201° Southwest 186 214 7,000 -200 Descending Boston Center
Tue 05:50:26 PM 41.8542 -74.3939 198° South 186 214 7,000  Level Boston Center
Tue 05:51:26 PM 41.8058 -74.4175 200° South 180 207 7,000  Level Boston Center
Tue 05:52:26 PM 41.7639 -74.4356 198° South 175 201 7,000  Level Boston Center
Tue 05:53:26 PM 41.7156 -74.4564 198° South 175 201 7,000  Level Boston Center
Tue 05:54:26 PM 41.6756 -74.4775 202° Southwest 175 201 7,000  Level Boston Center
Tue 05:55:26 PM 41.6250 -74.5008 199° South 170 196 7,000 -200 Level Boston Center
Tue 05:56:26 PM 41.5831 -74.5189 198° South 176 203 6,600 -500 Descending Boston Center
Tue 05:57:26 PM 41.5325 -74.5422 199° South 176 203 6,000 -300 Descending Boston Center
Tue 05:58:26 PM 41.4928 -74.5603 199° South 170 196 6,000 28 Level Boston Center
Tue 06:01:01 PM 41.3667 -74.6167 199° South 167 192 6,100 28 Climbing New York TRACON
Tue 06:02:01 PM 41.3333 -74.6333 201° Southwest 171 197 6,100 -300 Level New York TRACON
Tue 06:03:01 PM 41.2833 -74.6500 194° South 174 200 5,500 -500 Descending New York TRACON
Tue 06:04:01 PM 41.2333 -74.6667 194° South 176 203 5,100 -550 Descending New York TRACON
Tue 06:05:01 PM 41.1833 -74.6833 194° South 176 203 4,400 -500 Descending New York TRACON
Tue 06:06:01 PM 41.1500 -74.7000 201° Southwest 176 203 4,100 -150 Descending New York TRACON
Tue 06:07:01 PM 41.1000 -74.7167 194° South 166 191 4,100  Level New York TRACON
Tue 06:08:01 PM 41.0667 -74.6833 143° Southeast 159 183 4,100 -200 Level New York TRACON
Tue 06:09:01 PM 41.0500 -74.6333 114° Southeast 158 182 3,700 -550 Descending New York TRACON
Tue 06:10:01 PM 41.0333 -74.5833 114° Southeast 162 186 3,000 -400 Descending New York TRACON
Tue 06:11:01 PM 41.0000 -74.5333 131° Southeast 154 177 2,900 -150 Descending New York TRACON
Tue 06:12:01 PM 40.9833 -74.4833 114° Southeast 155 178 2,700 -190 Descending New York TRACON
Tue 06:13:07 PM 40.9500 -74.4333 131° Southeast 155 178 2,500 -286 Descending New York TRACON
Tue 06:14:07 PM 40.9333 -74.4000 123° Southeast 157 181 2,100 -368 Descending New York TRACON
Tue 06:15:01 PM 40.9000 -74.3500 131° Southeast 150 173 1,800 -500 Descending New York TRACON
Tue 06:16:07 PM 40.8833 -74.3000 114° Southeast 141 162 1,100 -636 Descending New York TRACON
Tue 06:18:00 PM 40.8752 -74.2814 128° Southeast  Level Estimated
Tue 06:25:00 PM 40.8752 -74.2814 128° Southeast  Level Estimated
Tue 06:26:00 PM 40.8752 -74.2814 128° Southeast  Level Estimated
Tue 06:27:00 PM 40.8752 -74.2814 128° Southeast  Level Estimated
Tue 06:28:00 PM 40.8752 -74.2814 128° Southeast  Level Estimated

Login

Don't have an account? Register now (free) for customized features, flight alerts, and more!